Time;durP1;ratioP1;P1;durP2;ratioP2;P2;SDS_P1;SDS_P2;PMS_P1;PMS_P2;Temp;Humidity;BMP_temperature;BMP_pressure;BME280_temperature;BME280_humidity;BME280_pressure;Samples;Min_cycle;Max_cycle;Signal;HPM_P1;HPM_P2
2023/08/22 00:00:05;;;;;;;3.13;1.75;;;17.40;99.90;;;;;;5090981;28;20212;-73
2023/08/22 00:02:35;;;;;;;3.22;1.80;;;17.50;99.90;;;;;;5084722;28;20200;-73
2023/08/22 00:05:06;;;;;;;4.43;1.55;;;17.60;99.90;;;;;;5087232;28;20210;-74
2023/08/22 00:07:40;;;;;;;3.08;1.70;;;17.60;99.90;;;;;;5081102;28;20234;-74
2023/08/22 00:10:12;;;;;;;3.15;1.77;;;17.40;99.90;;;;;;5075776;28;20607;-73
2023/08/22 00:12:43;;;;;;;2.92;1.80;;;17.30;99.90;;;;;;5079532;28;20238;-73
2023/08/22 00:15:15;;;;;;;3.85;1.80;;;17.30;99.90;;;;;;5095535;28;20271;-74
2023/08/22 00:17:46;;;;;;;3.40;1.75;;;17.30;99.90;;;;;;5083033;28;20193;-74
2023/08/22 00:20:18;;;;;;;2.45;1.40;;;17.30;99.90;;;;;;5075977;28;20215;-73
2023/08/22 00:22:51;;;;;;;2.25;1.60;;;17.40;99.90;;;;;;5085512;28;20269;-74
2023/08/22 00:25:22;;;;;;;2.45;1.70;;;17.60;99.90;;;;;;5080519;28;20201;-73
2023/08/22 00:27:52;;;;;;;2.15;1.33;;;17.80;99.90;;;;;;5076138;28;20196;-73
2023/08/22 00:30:23;;;;;;;1.98;1.58;;;18.00;99.90;;;;;;5079160;28;20196;-73
2023/08/22 00:32:54;;;;;;;3.42;1.70;;;18.10;99.90;;;;;;5088889;28;20196;-73
2023/08/22 00:35:28;;;;;;;2.60;1.30;;;18.30;99.90;;;;;;5093860;28;20196;-73
2023/08/22 00:38:01;;;;;;;3.95;1.30;;;18.40;99.90;;;;;;5093442;28;20659;-73
2023/08/22 00:40:31;;;;;;;2.78;1.30;;;18.60;99.90;;;;;;5075469;28;20221;-73
2023/08/22 00:43:02;;;;;;;3.50;1.42;;;18.70;99.90;;;;;;5077489;28;20272;-74
2023/08/22 00:45:33;;;;;;;3.08;1.30;;;18.70;99.90;;;;;;5083939;28;20196;-74
2023/08/22 00:48:04;;;;;;;1.60;1.10;;;18.70;99.90;;;;;;5087913;28;20197;-73
2023/08/22 00:50:35;;;;;;;3.17;1.38;;;18.80;99.90;;;;;;5094445;28;20199;-73
2023/08/22 00:53:08;;;;;;;2.40;1.20;;;19.00;99.90;;;;;;5093564;28;20655;-73
2023/08/22 00:55:39;;;;;;;1.70;1.10;;;19.40;99.90;;;;;;5094647;28;20261;-74
2023/08/22 00:58:10;;;;;;;1.88;1.00;;;19.60;99.90;;;;;;5083455;28;20192;-74
2023/08/22 01:00:41;;;;;;;3.30;1.00;;;19.90;99.90;;;;;;5086432;28;20212;-75
2023/08/22 01:03:13;;;;;;;2.08;0.90;;;20.20;99.90;;;;;;5093276;28;20199;-72
2023/08/22 01:05:51;;;;;;;3.50;1.13;;;20.50;99.90;;;;;;5073690;28;20197;-73
2023/08/22 01:08:31;;;;;;;1.00;0.82;;;20.70;99.90;;;;;;5084563;28;20578;-73
2023/08/22 01:11:09;;;;;;;2.33;0.95;;;20.90;99.90;;;;;;5086338;28;20321;-73
2023/08/22 01:13:42;;;;;;;1.10;0.85;;;21.20;99.90;;;;;;5084167;28;20192;-73
2023/08/22 01:16:14;;;;;;;1.88;1.00;;;21.40;99.90;;;;;;5086636;28;20201;-75
2023/08/22 01:18:47;;;;;;;3.22;1.00;;;21.60;99.90;;;;;;5081867;28;20233;-73
2023/08/22 01:21:22;;;;;;;0.75;0.75;;;21.70;99.90;;;;;;5079557;28;20204;-73
2023/08/22 01:23:56;;;;;;;2.05;1.00;;;21.90;99.90;;;;;;5090765;28;20602;-74
2023/08/22 01:26:30;;;;;;;2.35;0.70;;;22.10;99.90;;;;;;5079009;28;20205;-72
2023/08/22 01:29:09;;;;;;;1.13;0.68;;;22.30;99.90;;;;;;5079535;28;20220;-73
2023/08/22 01:31:48;;;;;;;0.90;0.73;;;22.50;99.90;;;;;;5079914;28;20191;-74
2023/08/22 01:34:23;;;;;;;1.77;0.90;;;22.70;99.90;;;;;;5074859;28;20196;-72
2023/08/22 01:36:56;;;;;;;0.80;0.80;;;22.90;99.90;;;;;;5078489;28;20189;-72
2023/08/22 01:39:30;;;;;;;1.52;0.77;;;23.10;99.90;;;;;;5077464;28;20216;-74
2023/08/22 01:42:02;;;;;;;1.15;0.70;;;23.30;99.90;;;;;;5075763;28;20693;-73
2023/08/22 01:44:33;;;;;;;2.35;0.80;;;23.50;99.90;;;;;;5074361;28;20217;-72
2023/08/22 01:47:03;;;;;;;3.05;0.60;;;23.80;99.90;;;;;;5073597;28;20193;-73
2023/08/22 01:49:37;;;;;;;1.38;0.98;;;23.90;99.90;;;;;;5073767;28;20211;-73
2023/08/22 01:52:08;;;;;;;0.75;0.50;;;24.00;99.90;;;;;;5073626;28;20220;-72
2023/08/22 01:54:41;;;;;;;1.80;0.80;;;24.20;99.90;;;;;;5073348;28;20227;-73
2023/08/22 01:57:11;;;;;;;3.17;1.70;;;24.30;99.90;;;;;;5073698;28;20196;-73
2023/08/22 01:59:42;;;;;;;1.73;0.90;;;24.40;99.90;;;;;;5073523;28;20574;-73
2023/08/22 02:02:13;;;;;;;9.90;7.13;;;24.50;99.90;;;;;;5073119;28;20196;-74
2023/08/22 02:04:44;;;;;;;1.13;0.90;;;24.40;99.90;;;;;;5073679;28;20612;-74
2023/08/22 02:07:15;;;;;;;1.55;0.63;;;24.30;99.90;;;;;;5073317;28;20193;-74
2023/08/22 02:09:48;;;;;;;1.17;0.70;;;24.10;99.90;;;;;;5073374;28;20189;-74
2023/08/22 02:12:19;;;;;;;1.13;0.60;;;24.10;99.90;;;;;;5073143;28;20228;-75
2023/08/22 02:14:51;;;;;;;1.15;0.70;;;24.30;99.90;;;;;;5073100;28;20279;-74
2023/08/22 02:17:22;;;;;;;0.70;0.60;;;24.40;99.90;;;;;;5073072;28;20192;-77
2023/08/22 02:19:53;;;;;;;1.60;0.77;;;24.70;99.90;;;;;;5072525;28;20220;-74
2023/08/22 02:22:23;;;;;;;2.67;1.45;;;24.90;99.90;;;;;;5089371;28;20188;-75
2023/08/22 02:24:56;;;;;;;0.60;0.60;;;25.10;99.90;;;;;;5080419;28;20590;-76
2023/08/22 02:27:27;;;;;;;0.75;0.50;;;25.30;99.90;;;;;;5089588;28;20664;-74
2023/08/22 02:29:58;;;;;;;1.60;0.60;;;25.50;99.90;;;;;;5073193;28;20222;-76
2023/08/22 02:32:28;;;;;;;2.78;0.70;;;25.60;99.90;;;;;;5072831;28;20611;-77
2023/08/22 02:34:59;;;;;;;0.60;0.43;;;25.70;99.90;;;;;;5075496;28;20633;-75
2023/08/22 02:37:30;;;;;;;0.50;0.50;;;25.60;99.90;;;;;;5091856;28;20340;-74
2023/08/22 02:40:06;;;;;;;0.88;0.60;;;25.80;99.90;;;;;;5081328;28;20221;-76
2023/08/22 02:42:36;;;;;;;0.65;0.40;;;25.90;99.90;;;;;;5088785;28;20195;-74
2023/08/22 02:45:08;;;;;;;0.30;0.30;;;25.90;99.90;;;;;;5092970;28;20192;-73
2023/08/22 02:47:38;;;;;;;5.75;0.80;;;25.70;99.90;;;;;;5090536;28;20197;-73
2023/08/22 02:50:10;;;;;;;1.67;0.60;;;25.60;99.90;;;;;;5079176;28;20204;-75
2023/08/22 02:52:41;;;;;;;1.88;0.40;;;25.70;99.90;;;;;;5081903;28;20706;-76
2023/08/22 02:55:14;;;;;;;0.32;0.30;;;25.60;99.90;;;;;;5081551;28;20192;-76
2023/08/22 02:57:44;;;;;;;0.95;0.80;;;25.70;99.90;;;;;;5072381;28;20193;-76
2023/08/22 03:00:16;;;;;;;1.30;0.30;;;25.70;99.90;;;;;;5086022;28;20220;-75
2023/08/22 03:02:48;;;;;;;0.30;0.30;;;25.60;99.90;;;;;;5094286;28;20204;-75
2023/08/22 03:05:19;;;;;;;2.85;0.30;;;25.50;99.90;;;;;;5088503;28;20564;-76
2023/08/22 03:07:50;;;;;;;0.32;0.32;;;25.30;99.90;;;;;;5091446;28;20660;-75
2023/08/22 03:10:23;;;;;;;0.40;0.40;;;25.30;99.90;;;;;;5091094;28;20192;-76
2023/08/22 03:12:54;;;;;;;0.30;0.30;;;25.40;99.90;;;;;;5089426;28;20192;-76
2023/08/22 03:15:25;;;;;;;1.55;0.50;;;25.50;99.90;;;;;;5074686;28;20201;-77
2023/08/22 03:17:56;;;;;;;0.40;0.40;;;25.60;99.90;;;;;;5072415;28;20197;-76
2023/08/22 03:20:26;;;;;;;1.20;0.40;;;25.60;99.90;;;;;;5072038;28;20240;-75
2023/08/22 03:22:57;;;;;;;0.47;0.40;;;25.50;99.90;;;;;;5083059;28;20199;-76
2023/08/22 03:25:30;;;;;;;0.40;0.40;;;25.40;99.90;;;;;;5086032;28;20627;-75
2023/08/22 03:28:01;;;;;;;0.32;0.30;;;25.30;99.90;;;;;;5079023;28;20211;-75
2023/08/22 03:30:31;;;;;;;0.40;0.40;;;25.20;99.90;;;;;;5076594;28;20563;-74
2023/08/22 03:33:02;;;;;;;0.60;0.47;;;25.00;99.90;;;;;;5087701;28;20197;-77
2023/08/22 03:35:34;;;;;;;0.40;0.40;;;24.90;99.90;;;;;;5095296;28;20207;-78
2023/08/22 03:38:05;;;;;;;0.30;0.30;;;24.90;99.90;;;;;;5081571;28;20258;-79
2023/08/22 03:40:37;;;;;;;0.50;0.50;;;24.80;99.90;;;;;;5083459;28;20220;-76
2023/08/22 03:43:08;;;;;;;0.60;0.50;;;24.80;99.90;;;;;;5084907;28;20371;-76
2023/08/22 03:45:39;;;;;;;0.98;0.43;;;24.80;99.90;;;;;;5077609;28;20226;-75
2023/08/22 03:48:10;;;;;;;1.13;0.60;;;24.80;99.90;;;;;;5083317;28;20201;-77
2023/08/22 03:50:43;;;;;;;0.32;0.30;;;24.80;99.90;;;;;;5075909;28;20195;-75
2023/08/22 03:53:16;;;;;;;0.50;0.30;;;24.80;99.90;;;;;;5076100;28;20217;-77
2023/08/22 03:55:48;;;;;;;0.40;0.40;;;24.70;99.90;;;;;;5084137;28;20196;-76
2023/08/22 03:58:19;;;;;;;0.65;0.40;;;24.60;99.90;;;;;;5081688;28;20227;-76
2023/08/22 04:00:50;;;;;;;0.32;0.32;;;24.60;99.90;;;;;;5082195;28;20682;-76
2023/08/22 04:03:20;;;;;;;0.47;0.43;;;24.50;99.90;;;;;;5075594;28;20188;-75
2023/08/22 04:05:51;;;;;;;0.47;0.40;;;24.50;99.90;;;;;;5092426;28;20275;-76
2023/08/22 04:08:22;;;;;;;0.43;0.40;;;24.40;99.90;;;;;;5078285;28;20617;-76
2023/08/22 04:10:55;;;;;;;1.15;0.40;;;24.40;99.90;;;;;;5077887;28;20233;-75
2023/08/22 04:13:26;;;;;;;0.85;0.50;;;24.40;99.90;;;;;;5075307;28;20549;-75
2023/08/22 04:15:56;;;;;;;0.40;0.40;;;24.30;99.90;;;;;;5079500;28;20671;-76
2023/08/22 04:18:27;;;;;;;0.50;0.30;;;24.30;99.90;;;;;;5091828;28;20192;-76
2023/08/22 04:20:58;;;;;;;0.40;0.40;;;24.20;99.90;;;;;;5095559;28;20222;-75
2023/08/22 04:23:29;;;;;;;0.68;0.40;;;24.10;99.90;;;;;;5093840;28;20283;-75
2023/08/22 04:26:01;;;;;;;0.60;0.40;;;24.10;99.90;;;;;;5092440;28;20204;-74
2023/08/22 04:28:33;;;;;;;0.80;0.57;;;24.10;99.90;;;;;;5080932;28;20557;-76
2023/08/22 04:31:04;;;;;;;4.22;0.60;;;24.10;99.90;;;;;;5075099;28;20193;-76
2023/08/22 04:33:34;;;;;;;0.40;0.40;;;24.10;99.90;;;;;;5078219;28;20203;-77
2023/08/22 04:36:06;;;;;;;0.40;0.40;;;24.10;99.90;;;;;;5080762;28;20200;-77
2023/08/22 04:38:37;;;;;;;1.17;0.40;;;24.00;99.90;;;;;;5081356;28;20311;-77
2023/08/22 04:41:09;;;;;;;0.80;0.43;;;24.00;99.90;;;;;;5093542;28;20262;-76
2023/08/22 04:43:40;;;;;;;0.47;0.43;;;24.00;99.90;;;;;;5076063;28;20690;-76
2023/08/22 04:46:11;;;;;;;0.60;0.60;;;24.10;99.90;;;;;;5082613;28;20195;-77
2023/08/22 04:48:41;;;;;;;0.32;0.32;;;24.10;99.90;;;;;;5079108;28;20185;-75
2023/08/22 04:51:12;;;;;;;1.75;0.50;;;24.20;99.90;;;;;;5074472;28;20201;-76
2023/08/22 04:53:45;;;;;;;0.45;0.30;;;24.30;99.90;;;;;;5074303;28;20227;-77
2023/08/22 04:56:18;;;;;;;0.40;0.40;;;24.10;99.90;;;;;;5075296;28;20185;-75
2023/08/22 04:58:49;;;;;;;0.82;0.40;;;24.10;99.90;;;;;;5083768;28;20197;-75
2023/08/22 05:01:19;;;;;;;1.80;0.50;;;24.10;99.90;;;;;;5089933;28;20591;-75
2023/08/22 05:03:50;;;;;;;0.47;0.40;;;24.10;99.90;;;;;;5085184;28;20192;-75
2023/08/22 05:06:21;;;;;;;0.35;0.35;;;24.10;99.90;;;;;;5092661;28;20195;-76
2023/08/22 05:08:52;;;;;;;0.35;0.35;;;24.00;99.90;;;;;;5093915;28;20196;-75
2023/08/22 05:11:24;;;;;;;0.40;0.40;;;24.00;99.90;;;;;;5092577;28;20239;-76
2023/08/22 05:13:55;;;;;;;0.52;0.50;;;23.90;99.90;;;;;;5094680;28;20535;-75
2023/08/22 05:16:26;;;;;;;0.40;0.40;;;23.80;99.90;;;;;;5091804;28;20204;-74
2023/08/22 05:18:57;;;;;;;1.08;0.52;;;23.80;99.90;;;;;;5093097;28;20192;-75
2023/08/22 05:21:27;;;;;;;0.95;0.60;;;23.70;99.90;;;;;;5092668;28;20224;-75
2023/08/22 05:23:58;;;;;;;1.15;0.57;;;23.60;99.90;;;;;;5092573;28;20204;-75
2023/08/22 05:26:31;;;;;;;0.52;0.50;;;23.50;99.90;;;;;;5092159;28;20192;-76
2023/08/22 05:29:02;;;;;;;0.88;0.57;;;23.40;99.90;;;;;;5074072;28;20204;-77
2023/08/22 05:31:33;;;;;;;2.20;0.73;;;23.40;99.90;;;;;;5076973;28;20189;-76
2023/08/22 05:34:04;;;;;;;1.13;0.70;;;23.30;99.90;;;;;;5076973;28;20201;-77
2023/08/22 05:36:35;;;;;;;3.92;1.00;;;23.30;99.90;;;;;;5090541;28;20245;-75
2023/08/22 05:39:06;;;;;;;1.10;0.80;;;23.20;99.90;;;;;;5091775;28;20289;-75
2023/08/22 05:41:39;;;;;;;2.92;1.30;;;23.10;99.90;;;;;;5086230;28;20759;-75
2023/08/22 05:44:09;;;;;;;4.68;1.20;;;23.00;99.90;;;;;;5094162;28;20202;-76
2023/08/22 05:46:40;;;;;;;4.93;1.40;;;22.90;99.90;;;;;;5091644;28;20196;-75
2023/08/22 05:49:11;;;;;;;3.72;1.25;;;22.80;99.90;;;;;;5083156;28;20197;-76
2023/08/22 05:51:42;;;;;;;3.33;1.00;;;22.70;99.90;;;;;;5075807;28;20199;-76
2023/08/22 05:54:12;;;;;;;2.13;1.00;;;22.70;99.90;;;;;;5082917;28;20572;-75
2023/08/22 05:56:45;;;;;;;2.58;1.02;;;22.60;99.90;;;;;;5090491;28;20308;-76
2023/08/22 05:59:16;;;;;;;2.55;1.05;;;22.60;99.90;;;;;;5081707;28;20193;-75
2023/08/22 06:01:46;;;;;;;1.88;1.00;;;22.50;99.90;;;;;;5077643;28;20216;-76
2023/08/22 06:04:17;;;;;;;1.70;0.85;;;22.50;99.90;;;;;;5073298;28;20279;-75
2023/08/22 06:06:48;;;;;;;2.92;1.05;;;22.40;99.90;;;;;;5073784;28;20195;-76
2023/08/22 06:09:19;;;;;;;1.25;0.90;;;22.40;99.90;;;;;;5073100;28;20279;-76
2023/08/22 06:11:51;;;;;;;1.52;1.00;;;22.20;99.90;;;;;;5073574;28;20239;-76
2023/08/22 06:14:22;;;;;;;5.65;1.13;;;22.20;99.90;;;;;;5073508;28;20192;-75
2023/08/22 06:16:53;;;;;;;3.42;0.98;;;22.20;99.90;;;;;;5074504;28;20195;-76
2023/08/22 06:19:24;;;;;;;1.40;0.98;;;22.10;99.90;;;;;;5073399;28;20641;-75
2023/08/22 06:21:54;;;;;;;1.98;0.93;;;22.10;99.90;;;;;;5073131;28;20219;-76
2023/08/22 06:24:25;;;;;;;1.20;0.82;;;22.10;99.90;;;;;;5087840;28;20660;-76
2023/08/22 06:26:58;;;;;;;2.30;0.80;;;22.00;99.90;;;;;;5092198;28;20184;-76
2023/08/22 06:29:28;;;;;;;2.47;1.00;;;22.00;99.90;;;;;;5086366;28;20192;-76
2023/08/22 06:32:00;;;;;;;2.80;1.00;;;21.90;99.90;;;;;;5090180;28;20211;-75
2023/08/22 06:34:32;;;;;;;2.42;1.00;;;21.90;99.90;;;;;;5077385;28;20189;-75
2023/08/22 06:37:04;;;;;;;1.38;1.00;;;21.90;99.90;;;;;;5073182;28;20201;-76
2023/08/22 06:39:35;;;;;;;2.55;1.15;;;21.90;99.90;;;;;;5080291;28;20648;-75
2023/08/22 06:42:08;;;;;;;3.55;1.00;;;21.80;99.90;;;;;;5090639;28;20680;-74
2023/08/22 06:44:38;;;;;;;1.60;1.00;;;21.80;99.90;;;;;;5086752;28;20192;-75
2023/08/22 06:47:09;;;;;;;1.85;0.80;;;21.80;99.90;;;;;;5073101;28;20196;-75
2023/08/22 06:49:40;;;;;;;1.33;0.90;;;21.70;99.90;;;;;;5083056;28;20192;-83
2023/08/22 06:52:11;;;;;;;4.05;1.00;;;21.60;99.90;;;;;;5093012;28;20314;-77
2023/08/22 06:54:41;;;;;;;3.05;1.00;;;21.60;99.90;;;;;;5088325;28;20709;-78
2023/08/22 06:57:14;;;;;;;1.90;0.82;;;21.60;99.90;;;;;;5090545;28;20207;-78
2023/08/22 06:59:45;;;;;;;2.00;1.10;;;21.60;99.90;;;;;;5082589;28;20203;-78
2023/08/22 07:02:15;;;;;;;2.60;0.95;;;21.60;99.90;;;;;;5076977;28;20208;-78
2023/08/22 07:04:46;;;;;;;6.97;1.20;;;21.50;99.90;;;;;;5093360;28;20196;-78
2023/08/22 07:07:17;;;;;;;1.80;0.88;;;21.40;99.90;;;;;;5085008;28;20189;-77
2023/08/22 07:09:52;;;;;;;2.30;1.10;;;21.40;99.90;;;;;;5077227;28;20200;-78
2023/08/22 07:12:24;;;;;;;3.75;0.95;;;21.30;99.90;;;;;;5081948;28;20226;-77
2023/08/22 07:14:55;;;;;;;2.22;1.10;;;21.20;99.90;;;;;;5097106;28;20192;-77
2023/08/22 07:17:26;;;;;;;1.50;0.98;;;21.10;99.90;;;;;;5088435;28;20212;-75
2023/08/22 07:19:56;;;;;;;3.10;1.15;;;21.00;99.90;;;;;;5077450;28;20208;-77
2023/08/22 07:22:27;;;;;;;2.58;1.05;;;20.90;99.90;;;;;;5076716;28;20692;-77
2023/08/22 07:24:58;;;;;;;1.50;1.00;;;20.80;99.90;;;;;;5086548;28;20665;-77
2023/08/22 07:27:30;;;;;;;2.67;1.10;;;20.70;99.90;;;;;;5089396;28;20652;-77
2023/08/22 07:30:01;;;;;;;2.38;1.20;;;20.60;99.90;;;;;;5089283;28;20333;-76
2023/08/22 07:32:33;;;;;;;2.78;1.15;;;20.60;99.90;;;;;;5076042;28;20201;-77
2023/08/22 07:35:04;;;;;;;4.47;1.20;;;20.50;99.90;;;;;;5086494;28;20189;-77
2023/08/22 07:37:35;;;;;;;2.90;1.25;;;20.40;99.90;;;;;;5095024;28;20184;-77
2023/08/22 07:40:06;;;;;;;2.22;1.33;;;20.30;99.90;;;;;;5076269;28;20185;-77
2023/08/22 07:42:39;;;;;;;4.10;1.20;;;20.20;99.90;;;;;;5089572;28;20219;-77
2023/08/22 07:45:11;;;;;;;2.08;1.10;;;20.10;99.90;;;;;;5075999;28;20621;-77
2023/08/22 07:47:41;;;;;;;6.90;1.70;;;20.00;99.90;;;;;;5075948;28;20197;-77
2023/08/22 07:50:12;;;;;;;3.47;1.73;;;20.00;99.90;;;;;;5078903;28;20216;-77
2023/08/22 07:52:43;;;;;;;4.15;1.30;;;19.90;99.90;;;;;;5079436;28;20200;-76
2023/08/22 07:55:14;;;;;;;4.10;1.50;;;19.80;99.90;;;;;;5092677;28;20196;-77
2023/08/22 07:57:47;;;;;;;3.75;1.30;;;19.70;99.90;;;;;;5083943;28;20279;-77
2023/08/22 08:00:18;;;;;;;3.72;1.35;;;19.70;99.90;;;;;;5081043;28;20208;-77
2023/08/22 08:02:49;;;;;;;3.22;1.30;;;19.60;99.90;;;;;;5079229;28;20252;-76
2023/08/22 08:05:20;;;;;;;5.47;1.48;;;19.50;99.90;;;;;;5079582;28;20193;-77
2023/08/22 08:07:50;;;;;;;4.05;1.70;;;19.50;99.90;;;;;;5080374;28;20271;-77
2023/08/22 08:10:21;;;;;;;3.03;1.67;;;19.40;99.90;;;;;;5076797;28;20204;-77
2023/08/22 08:12:54;;;;;;;3.45;1.80;;;19.30;99.90;;;;;;5087512;28;20192;-76
2023/08/22 08:15:25;;;;;;;3.45;1.90;;;19.30;99.90;;;;;;5085369;28;20205;-76
2023/08/22 08:17:58;;;;;;;4.97;1.77;;;19.20;99.90;;;;;;5078130;28;20193;-77
2023/08/22 08:20:28;;;;;;;3.05;1.80;;;19.20;99.90;;;;;;5079753;28;20250;-77
2023/08/22 08:22:59;;;;;;;5.03;2.10;;;19.10;99.90;;;;;;5077365;28;20345;-76
2023/08/22 08:25:30;;;;;;;3.60;1.98;;;19.00;99.90;;;;;;5085634;28;20189;-76
2023/08/22 08:28:04;;;;;;;2.95;1.90;;;18.90;99.90;;;;;;5078561;28;20656;-76
2023/08/22 08:30:35;;;;;;;3.15;1.50;;;18.90;99.90;;;;;;5085380;28;20191;-76
2023/08/22 08:33:06;;;;;;;6.18;1.80;;;18.80;99.90;;;;;;5076633;28;20208;-76
2023/08/22 08:35:37;;;;;;;2.42;1.50;;;18.80;99.90;;;;;;5078230;28;20304;-75
2023/08/22 08:38:08;;;;;;;2.95;1.30;;;18.80;99.90;;;;;;5080708;28;20200;-76
2023/08/22 08:40:40;;;;;;;2.80;1.50;;;18.70;99.90;;;;;;5078995;28;20197;-76
2023/08/22 08:43:13;;;;;;;3.00;1.50;;;18.70;99.90;;;;;;5083104;28;20224;-75
2023/08/22 08:45:44;;;;;;;4.15;1.52;;;18.60;99.90;;;;;;5077001;28;20204;-75
2023/08/22 08:48:15;;;;;;;4.47;1.80;;;18.50;99.90;;;;;;5084425;28;20208;-76
2023/08/22 08:50:46;;;;;;;2.50;1.60;;;18.50;99.90;;;;;;5076287;28;20220;-77
2023/08/22 08:53:17;;;;;;;4.03;1.50;;;18.40;99.90;;;;;;5086199;28;20566;-77
2023/08/22 08:55:48;;;;;;;4.88;2.03;;;18.40;99.90;;;;;;5084808;28;20195;-77
2023/08/22 08:58:21;;;;;;;3.60;1.80;;;18.30;99.90;;;;;;5077439;28;20193;-77
2023/08/22 09:00:53;;;;;;;5.03;1.92;;;18.30;99.90;;;;;;5080991;28;20197;-77
2023/08/22 09:03:25;;;;;;;2.45;1.60;;;18.20;99.90;;;;;;5076093;28;20315;-76
2023/08/22 09:05:55;;;;;;;2.65;1.80;;;18.10;99.90;;;;;;5081540;28;20199;-77
2023/08/22 09:08:26;;;;;;;5.22;1.77;;;18.10;99.90;;;;;;5084824;28;20188;-76
2023/08/22 09:10:57;;;;;;;3.45;1.90;;;18.10;99.90;;;;;;5075779;28;20238;-76
2023/08/22 09:13:35;;;;;;;3.70;1.70;;;18.00;99.90;;;;;;5082133;28;20203;-76
2023/08/22 09:16:06;;;;;;;3.08;1.58;;;18.00;99.90;;;;;;5073837;28;20200;-76
2023/08/22 09:18:44;;;;;;;4.97;1.65;;;18.00;99.90;;;;;;5083799;28;20197;-77
2023/08/22 09:21:15;;;;;;;2.30;1.60;;;18.00;99.90;;;;;;5082837;28;20655;-77
2023/08/22 09:23:49;;;;;;;3.72;2.28;;;18.10;99.90;;;;;;5075894;28;20235;-77
2023/08/22 09:26:24;;;;;;;4.78;2.05;;;18.10;99.90;;;;;;5073980;28;20204;-77
2023/08/22 09:28:57;;;;;;;3.42;1.60;;;18.10;99.90;;;;;;5079013;28;20188;-77
2023/08/22 09:31:28;;;;;;;2.17;1.70;;;18.10;99.90;;;;;;5084504;28;20188;-77
2023/08/22 09:33:59;;;;;;;5.38;2.47;;;18.10;99.90;;;;;;5092613;28;20664;-76
2023/08/22 09:36:30;;;;;;;4.75;2.45;;;18.20;99.90;;;;;;5073993;28;20199;-76
2023/08/22 09:39:02;;;;;;;3.30;2.00;;;18.30;99.90;;;;;;5089868;28;20196;-76
2023/08/22 09:41:33;;;;;;;3.60;1.67;;;18.40;99.90;;;;;;5084378;28;20196;-77
2023/08/22 09:44:08;;;;;;;1.80;1.50;;;18.50;99.90;;;;;;5086237;28;20192;-77
2023/08/22 09:46:41;;;;;;;3.65;1.60;;;18.60;99.90;;;;;;5080314;28;20191;-77
2023/08/22 09:49:17;;;;;;;2.10;1.20;;;18.60;99.90;;;;;;5078881;28;20201;-76
2023/08/22 09:51:48;;;;;;;1.83;1.42;;;18.70;99.90;;;;;;5073700;28;20204;-77
2023/08/22 09:54:19;;;;;;;3.42;1.40;;;18.80;99.90;;;;;;5080784;28;20193;-76
2023/08/22 09:56:50;;;;;;;2.22;1.48;;;18.80;99.90;;;;;;5085677;28;20200;-76
2023/08/22 09:59:23;;;;;;;2.08;1.30;;;18.80;99.90;;;;;;5076621;28;20200;-76
2023/08/22 10:01:55;;;;;;;2.90;1.55;;;18.80;99.90;;;;;;5084181;28;20273;-77
2023/08/22 10:04:26;;;;;;;1.63;1.20;;;18.80;99.90;;;;;;5089160;28;20214;-77
2023/08/22 10:06:57;;;;;;;2.85;1.77;;;18.80;99.90;;;;;;5085217;28;20192;-76
2023/08/22 10:09:28;;;;;;;1.77;1.50;;;18.80;99.90;;;;;;5089444;28;20196;-76
2023/08/22 10:12:01;;;;;;;2.08;1.55;;;18.80;99.90;;;;;;5082657;28;20239;-77
2023/08/22 10:14:37;;;;;;;2.78;1.30;;;18.80;99.90;;;;;;5082992;28;20200;-76
2023/08/22 10:17:13;;;;;;;1.70;1.27;;;18.90;99.90;;;;;;5077239;28;20212;-76
2023/08/22 10:19:45;;;;;;;4.65;1.40;;;18.90;99.90;;;;;;5073714;28;20626;-76
2023/08/22 10:22:16;;;;;;;2.38;1.30;;;18.90;99.90;;;;;;5076250;28;20208;-77
2023/08/22 10:24:49;;;;;;;1.83;1.40;;;18.90;99.90;;;;;;5086183;28;20200;-76
2023/08/22 10:27:20;;;;;;;4.20;1.58;;;18.90;99.90;;;;;;5078017;28;20197;-76
2023/08/22 10:30:22;;;;;;;2.72;1.48;;;18.90;99.90;;;;;;5081005;28;20287;-76
2023/08/22 10:33:10;;;;;;;3.90;1.48;;;18.80;99.90;;;;;;5073357;28;20705;-76
2023/08/22 10:35:41;;;;;;;2.13;1.25;;;18.80;99.90;;;;;;5075554;28;20200;-76
2023/08/22 10:38:22;;;;;;;5.13;1.60;;;18.70;99.90;;;;;;5091924;28;20191;-76
2023/08/22 10:40:57;;;;;;;2.97;1.30;;;18.70;99.90;;;;;;5085975;28;20200;-77
2023/08/22 10:43:41;;;;;;;1.83;1.42;;;18.60;99.90;;;;;;5075399;28;20216;-77
2023/08/22 10:46:14;;;;;;;3.90;1.50;;;18.50;99.90;;;;;;5075442;28;20566;-77
2023/08/22 10:48:46;;;;;;;3.10;1.60;;;18.50;99.90;;;;;;5080627;28;20226;-77
2023/08/22 10:51:17;;;;;;;1.58;1.30;;;18.50;99.90;;;;;;5086843;28;20192;-77
2023/08/22 10:53:48;;;;;;;1.50;1.20;;;18.40;99.90;;;;;;5073709;28;20184;-77
2023/08/22 10:56:25;;;;;;;1.90;1.40;;;18.40;99.90;;;;;;5075999;28;20197;-76
2023/08/22 10:59:07;;;;;;;1.73;1.33;;;18.40;99.90;;;;;;5085667;28;20279;-76
2023/08/22 11:01:40;;;;;;;5.25;1.50;;;18.30;99.90;;;;;;5078389;28;20653;-76
2023/08/22 11:04:13;;;;;;;2.15;1.60;;;18.30;99.90;;;;;;5082211;28;20699;-77
2023/08/22 11:06:44;;;;;;;1.20;1.02;;;18.30;99.90;;;;;;5087444;28;20196;-77
2023/08/22 11:09:16;;;;;;;2.58;1.50;;;18.30;99.90;;;;;;5077027;28;20216;-77
2023/08/22 11:11:47;;;;;;;1.50;1.40;;;18.30;99.90;;;;;;5070701;28;20231;-77
2023/08/22 11:14:18;;;;;;;3.60;1.50;;;18.30;99.90;;;;;;5081794;28;20196;-76
2023/08/22 11:16:50;;;;;;;3.88;1.40;;;18.30;99.90;;;;;;5070839;28;20197;-77
2023/08/22 11:19:22;;;;;;;2.50;1.42;;;18.30;99.90;;;;;;5071395;28;20197;-76
2023/08/22 11:21:53;;;;;;;2.63;1.67;;;18.20;99.90;;;;;;5070927;28;20658;-77
2023/08/22 11:24:25;;;;;;;3.10;1.30;;;18.20;99.90;;;;;;5087923;28;20184;-76
2023/08/22 11:26:56;;;;;;;3.83;1.65;;;18.20;99.90;;;;;;5092955;28;20535;-76
2023/08/22 11:29:27;;;;;;;4.13;1.50;;;18.20;99.90;;;;;;5079155;28;20216;-76
2023/08/22 11:32:00;;;;;;;1.58;1.23;;;18.20;99.90;;;;;;5072582;28;20655;-76
2023/08/22 11:34:31;;;;;;;2.55;1.60;;;18.10;99.90;;;;;;5072506;28;20212;-77
2023/08/22 11:37:02;;;;;;;2.08;1.48;;;18.10;99.90;;;;;;5084453;28;20297;-76
2023/08/22 11:39:33;;;;;;;2.33;1.50;;;18.10;99.90;;;;;;5087580;28;20193;-76
2023/08/22 11:42:04;;;;;;;3.13;1.50;;;18.10;99.90;;;;;;5072195;28;20196;-76
2023/08/22 11:44:35;;;;;;;3.45;1.95;;;18.30;99.90;;;;;;5074830;28;20636;-76
2023/08/22 11:47:15;;;;;;;4.43;1.70;;;18.50;99.90;;;;;;5075680;28;20199;-75
2023/08/22 11:49:45;;;;;;;4.68;1.80;;;18.60;99.90;;;;;;5072232;28;20243;-76
2023/08/22 11:52:16;;;;;;;4.00;1.70;;;18.60;99.90;;;;;;5087719;28;20569;-77
2023/08/22 11:54:47;;;;;;;3.40;1.75;;;18.50;99.90;;;;;;5089098;28;20195;-77
2023/08/22 11:57:18;;;;;;;5.07;1.90;;;18.40;99.90;;;;;;5075697;28;20200;-77
2023/08/22 11:59:49;;;;;;;2.55;1.75;;;18.20;99.90;;;;;;5076979;28;20193;-77
2023/08/22 12:02:22;;;;;;;3.10;2.03;;;18.10;99.90;;;;;;5080380;28;20192;-77
2023/08/22 12:04:55;;;;;;;3.50;1.50;;;18.00;99.90;;;;;;5089596;28;20210;-77
2023/08/22 12:07:26;;;;;;;4.20;1.85;;;18.00;99.90;;;;;;5078920;28;20238;-77
2023/08/22 12:10:05;;;;;;;3.35;1.60;;;17.90;99.90;;;;;;5083060;28;20189;-77
2023/08/22 12:12:36;;;;;;;3.03;1.73;;;17.80;99.90;;;;;;5095419;28;20283;-76
2023/08/22 12:15:08;;;;;;;2.88;1.83;;;17.80;99.90;;;;;;5081641;28;20185;-77
2023/08/22 12:17:40;;;;;;;3.38;1.85;;;17.80;99.90;;;;;;5075769;28;20215;-76
2023/08/22 12:20:12;;;;;;;3.30;1.90;;;17.80;99.90;;;;;;5075656;28;20212;-77
2023/08/22 12:22:42;;;;;;;3.85;1.88;;;17.80;99.90;;;;;;5075407;28;20220;-77
2023/08/22 12:25:13;;;;;;;3.58;1.90;;;17.80;99.90;;;;;;5075136;28;20546;-77
2023/08/22 12:27:44;;;;;;;4.63;1.98;;;17.80;99.90;;;;;;5075736;28;20227;-78
2023/08/22 12:30:15;;;;;;;4.70;1.92;;;17.80;99.90;;;;;;5075656;28;20376;-77
2023/08/22 12:32:48;;;;;;;3.00;1.75;;;17.70;99.90;;;;;;5075455;28;20372;-78
2023/08/22 12:35:19;;;;;;;3.50;1.80;;;17.60;99.90;;;;;;5085045;28;20200;-78
2023/08/22 12:37:49;;;;;;;3.75;1.77;;;17.40;99.90;;;;;;5092651;28;20199;-78
2023/08/22 12:40:20;;;;;;;4.82;1.50;;;17.10;99.90;;;;;;5077661;28;20197;-77
2023/08/22 12:42:51;;;;;;;2.78;1.35;;;17.00;99.90;;;;;;5085518;28;20212;-77
2023/08/22 12:45:22;;;;;;;1.90;1.05;;;16.90;99.90;;;;;;5075846;28;20204;-76
2023/08/22 12:47:55;;;;;;;3.55;1.10;;;16.90;99.90;;;;;;5082820;28;20196;-76
2023/08/22 12:50:26;;;;;;;3.72;1.20;;;16.80;99.90;;;;;;5087061;28;20197;-75
2023/08/22 12:52:57;;;;;;;2.60;1.35;;;16.80;99.90;;;;;;5085465;28;20192;-76
2023/08/22 12:55:28;;;;;;;3.17;1.17;;;16.70;99.90;;;;;;5095191;28;20192;-78
2023/08/22 12:57:59;;;;;;;4.55;1.00;;;16.70;99.90;;;;;;5094547;28;20277;-79
2023/08/22 13:00:30;;;;;;;1.77;1.05;;;16.70;99.90;;;;;;5087899;28;20275;-77
2023/08/22 13:03:03;;;;;;;4.03;1.00;;;16.70;99.90;;;;;;5074063;28;20311;-77
2023/08/22 13:05:34;;;;;;;3.70;1.40;;;16.60;99.90;;;;;;5075101;28;20227;-78
2023/08/22 13:08:04;;;;;;;3.15;1.00;;;16.60;99.90;;;;;;5088979;28;20280;-77
2023/08/22 13:10:35;;;;;;;1.13;0.90;;;16.60;99.90;;;;;;5079296;28;20228;-77